createdAt,value
2022-12-22T00:00:41.232Z,69.50
2022-12-22T00:03:07.840Z,69.10
2022-12-22T00:05:34.437Z,69.30
2022-12-22T00:08:00.926Z,69.40
2022-12-22T00:10:27.404Z,69.30
2022-12-22T00:12:53.882Z,69.20
2022-12-22T00:15:20.351Z,69.10
2022-12-22T00:17:46.876Z,68.80
2022-12-22T00:20:18.337Z,69.00
2022-12-22T00:22:45.238Z,69.00
2022-12-22T00:25:12.470Z,69.00
2022-12-22T00:27:43.781Z,69.10
2022-12-22T00:30:11.874Z,68.90
2022-12-22T00:32:38.363Z,69.00
2022-12-22T00:35:04.826Z,69.00
2022-12-22T00:37:31.294Z,68.90
2022-12-22T00:39:57.769Z,69.00
2022-12-22T00:42:24.240Z,68.90
2022-12-22T00:44:50.714Z,68.90
2022-12-22T00:47:17.181Z,68.80
2022-12-22T00:49:43.679Z,68.90
2022-12-22T00:52:10.141Z,69.00
2022-12-22T00:54:36.646Z,69.10
2022-12-22T00:57:03.096Z,69.20
2022-12-22T00:59:29.600Z,69.10
2022-12-22T01:01:56.195Z,69.00
2022-12-22T01:04:22.855Z,68.80
2022-12-22T01:06:49.324Z,69.00
2022-12-22T01:09:15.796Z,68.90
2022-12-22T01:11:42.272Z,68.80
2022-12-22T01:14:08.758Z,68.80
2022-12-22T01:16:35.313Z,69.00
2022-12-22T01:19:01.837Z,69.20
2022-12-22T01:21:28.303Z,69.10
2022-12-22T01:23:54.791Z,69.00
2022-12-22T01:26:21.280Z,69.00
2022-12-22T01:28:47.759Z,68.90
2022-12-22T01:31:14.300Z,68.80
2022-12-22T01:33:40.805Z,68.80
2022-12-22T01:36:07.312Z,68.80
2022-12-22T01:38:33.790Z,68.80
2022-12-22T01:41:00.282Z,69.10
2022-12-22T01:43:26.736Z,68.80
2022-12-22T01:45:53.287Z,68.50
2022-12-22T01:48:19.806Z,68.70
2022-12-22T01:50:46.297Z,68.90
2022-12-22T01:53:19.510Z,68.70
2022-12-22T01:55:46.360Z,68.90
2022-12-22T01:58:12.871Z,68.80
2022-12-22T02:00:39.362Z,68.80
2022-12-22T02:03:05.865Z,68.90
2022-12-22T02:05:32.397Z,68.70
2022-12-22T02:07:58.880Z,68.80
2022-12-22T02:10:25.363Z,68.80
2022-12-22T02:12:51.823Z,69.00
2022-12-22T02:15:18.303Z,68.80
2022-12-22T02:17:44.771Z,68.60
2022-12-22T02:20:16.028Z,68.90
2022-12-22T02:22:42.514Z,68.80
2022-12-22T02:25:08.977Z,69.00
2022-12-22T02:27:35.444Z,68.70
2022-12-22T02:30:01.932Z,68.90
2022-12-22T02:32:28.488Z,69.00
2022-12-22T02:34:54.965Z,68.80
2022-12-22T02:37:21.466Z,68.80
2022-12-22T02:39:48.221Z,68.80
2022-12-22T02:42:14.711Z,68.70
2022-12-22T02:44:41.174Z,68.60
2022-12-22T02:47:07.655Z,68.90
2022-12-22T02:49:34.124Z,68.80
2022-12-22T02:52:01.688Z,68.90
2022-12-22T02:54:28.160Z,69.10
2022-12-22T02:56:54.736Z,68.80
2022-12-22T02:59:21.197Z,68.90
2022-12-22T03:01:47.768Z,68.90
2022-12-22T03:04:14.309Z,69.00
2022-12-22T03:06:40.773Z,68.90
2022-12-22T03:09:07.257Z,68.80
2022-12-22T03:11:33.715Z,68.70
2022-12-22T03:14:00.203Z,68.80
2022-12-22T03:16:26.740Z,68.90
2022-12-22T03:18:57.917Z,68.90
2022-12-22T03:21:24.389Z,68.90
2022-12-22T03:23:50.851Z,68.70
2022-12-22T03:26:17.302Z,68.90
2022-12-22T03:28:43.763Z,69.00
2022-12-22T03:31:10.309Z,68.80
2022-12-22T03:33:36.792Z,68.90
2022-12-22T03:36:03.249Z,69.00
2022-12-22T03:38:29.732Z,69.00
2022-12-22T03:40:56.220Z,69.10
2022-12-22T03:43:22.667Z,69.00
2022-12-22T03:45:49.137Z,69.00
2022-12-22T03:48:15.627Z,69.00
2022-12-22T03:50:42.123Z,69.00
2022-12-22T03:53:08.620Z,69.10
2022-12-22T03:55:35.105Z,69.20
2022-12-22T03:58:03.911Z,69.10
2022-12-22T04:00:30.397Z,69.20
2022-12-22T04:02:56.949Z,69.10
2022-12-22T04:05:23.552Z,69.20
2022-12-22T04:07:50.031Z,69.20
2022-12-22T04:10:16.509Z,69.20
2022-12-22T04:12:42.996Z,69.20
2022-12-22T04:15:09.482Z,69.20
2022-12-22T04:17:35.957Z,69.00
2022-12-22T04:20:02.429Z,69.10
2022-12-22T04:22:28.906Z,69.10
2022-12-22T04:24:55.375Z,69.20
2022-12-22T04:27:21.857Z,69.20
2022-12-22T04:29:48.334Z,69.40
2022-12-22T04:32:14.815Z,69.20
2022-12-22T04:34:41.344Z,69.20
2022-12-22T04:37:16.773Z,69.20
2022-12-22T04:39:45.987Z,69.30
2022-12-22T04:42:12.479Z,69.30
2022-12-22T04:44:39.005Z,70.00
2022-12-22T04:47:05.497Z,69.30
2022-12-22T04:49:31.994Z,69.20
2022-12-22T04:51:58.475Z,69.20
2022-12-22T04:54:24.962Z,69.10
2022-12-22T04:56:51.432Z,69.10
2022-12-22T04:59:17.927Z,69.20
2022-12-22T05:01:44.579Z,68.90
2022-12-22T05:04:11.267Z,69.40
2022-12-22T05:06:37.745Z,69.20
2022-12-22T05:09:04.230Z,69.30
2022-12-22T05:11:30.728Z,69.10
2022-12-22T05:14:00.827Z,69.10
2022-12-22T05:16:30.100Z,69.30
2022-12-22T05:18:56.652Z,69.10
2022-12-22T05:21:23.129Z,69.30
2022-12-22T05:23:49.585Z,69.30
2022-12-22T05:26:22.036Z,69.30
2022-12-22T05:28:48.517Z,69.40
2022-12-22T05:31:15.056Z,69.20
2022-12-22T05:33:41.538Z,69.20
2022-12-22T05:36:08.040Z,69.20
2022-12-22T05:38:34.512Z,69.20
2022-12-22T05:41:04.379Z,69.40
2022-12-22T05:43:31.337Z,69.40
2022-12-22T05:45:57.832Z,69.20
2022-12-22T05:48:29.473Z,69.00
2022-12-22T05:50:58.740Z,69.30
2022-12-22T05:53:25.256Z,69.20
2022-12-22T05:55:51.743Z,69.20
2022-12-22T05:58:18.228Z,69.30
2022-12-22T06:00:44.732Z,69.40
2022-12-22T06:03:11.251Z,69.30
2022-12-22T06:05:37.793Z,69.60
2022-12-22T06:08:04.263Z,69.50
2022-12-22T06:10:30.760Z,69.40
2022-12-22T06:12:57.231Z,69.50
2022-12-22T06:15:23.724Z,69.40
2022-12-22T06:17:50.195Z,69.60
2022-12-22T06:20:16.745Z,69.40
2022-12-22T06:22:43.269Z,69.80
2022-12-22T06:25:15.375Z,70.60
2022-12-22T06:27:44.432Z,69.90
2022-12-22T06:30:10.951Z,69.70
2022-12-22T06:32:37.432Z,69.80
2022-12-22T06:35:03.912Z,69.80
2022-12-22T06:37:30.420Z,69.80
2022-12-22T06:39:56.885Z,69.50
2022-12-22T06:42:23.357Z,69.60
2022-12-22T06:44:49.836Z,69.80
2022-12-22T06:47:16.293Z,69.80
2022-12-22T06:49:42.772Z,69.80
2022-12-22T06:52:10.082Z,69.70
2022-12-22T06:54:36.544Z,70.00
2022-12-22T06:57:03.045Z,69.90
2022-12-22T06:59:29.510Z,70.00
2022-12-22T07:01:56.057Z,70.00
2022-12-22T07:04:22.588Z,70.00
2022-12-22T07:06:49.075Z,70.80
2022-12-22T07:09:15.542Z,69.90
2022-12-22T07:11:42.023Z,70.30
2022-12-22T07:14:08.519Z,70.30
2022-12-22T07:16:35.029Z,70.30
2022-12-22T07:19:04.074Z,70.20
2022-12-22T07:21:30.563Z,70.20
2022-12-22T07:23:57.046Z,70.30
2022-12-22T07:26:23.544Z,70.50
2022-12-22T07:28:50.014Z,70.50
2022-12-22T07:31:16.591Z,70.70
2022-12-22T07:33:43.053Z,70.60
2022-12-22T07:36:09.549Z,70.80
2022-12-22T07:38:36.074Z,71.00
2022-12-22T07:41:05.220Z,70.90
2022-12-22T07:43:31.882Z,71.10
2022-12-22T07:45:58.363Z,71.30
2022-12-22T07:48:24.832Z,71.20
2022-12-22T07:50:51.322Z,71.00
2022-12-22T07:53:17.797Z,71.50
2022-12-22T07:55:44.269Z,71.40
2022-12-22T07:58:10.733Z,71.70
2022-12-22T08:00:37.231Z,71.60
2022-12-22T08:03:03.838Z,71.60
2022-12-22T08:05:34.163Z,72.10
2022-12-22T08:08:00.633Z,72.30
2022-12-22T08:10:27.114Z,72.20
2022-12-22T08:12:53.643Z,72.30
2022-12-22T08:15:20.142Z,72.60
2022-12-22T08:17:46.626Z,72.30
2022-12-22T08:20:13.083Z,72.00
2022-12-22T08:22:39.567Z,72.30
2022-12-22T08:25:06.056Z,72.40
2022-12-22T08:27:32.558Z,72.70
2022-12-22T08:29:59.046Z,72.90
2022-12-22T08:32:25.562Z,72.70
2022-12-22T08:34:52.053Z,72.60
2022-12-22T08:37:18.530Z,72.60
2022-12-22T08:39:44.978Z,73.10
2022-12-22T08:42:11.490Z,72.80
2022-12-22T08:44:37.982Z,73.10
2022-12-22T08:47:04.521Z,73.20
2022-12-22T08:49:31.075Z,72.90
2022-12-22T08:51:57.567Z,73.00
2022-12-22T08:54:24.047Z,73.20
2022-12-22T08:56:50.533Z,72.90
2022-12-22T08:59:17.033Z,73.00
2022-12-22T09:01:43.550Z,73.20
2022-12-22T09:04:10.097Z,73.10
2022-12-22T09:06:40.793Z,72.80
2022-12-22T09:09:07.765Z,73.00
2022-12-22T09:11:34.231Z,73.20
2022-12-22T09:14:00.703Z,73.30
2022-12-22T09:16:27.261Z,73.40
2022-12-22T09:18:54.781Z,73.30
2022-12-22T09:21:21.281Z,73.30
2022-12-22T09:23:47.746Z,73.20
2022-12-22T09:26:14.248Z,73.20
2022-12-22T09:28:43.829Z,73.30
2022-12-22T09:31:14.695Z,73.00
2022-12-22T09:33:41.205Z,73.00
2022-12-22T09:36:07.656Z,73.00
2022-12-22T09:38:34.163Z,73.10
2022-12-22T09:41:00.642Z,73.00
2022-12-22T09:43:27.129Z,72.90
2022-12-22T09:45:53.639Z,72.70
2022-12-22T09:48:20.161Z,72.80
2022-12-22T09:50:46.631Z,72.80
2022-12-22T09:53:13.181Z,72.90
2022-12-22T09:55:39.672Z,73.10
2022-12-22T09:58:06.144Z,73.10
2022-12-22T10:00:32.650Z,73.00
2022-12-22T10:02:59.267Z,73.30
2022-12-22T10:05:25.825Z,73.20
2022-12-22T10:07:52.298Z,73.40
2022-12-22T10:10:18.844Z,73.00
2022-12-22T10:12:45.325Z,73.30
2022-12-22T10:15:14.250Z,73.40
2022-12-22T10:17:44.889Z,73.40
2022-12-22T10:20:11.399Z,73.50
2022-12-22T10:22:37.877Z,73.40
2022-12-22T10:25:04.380Z,73.60
2022-12-22T10:27:30.883Z,73.50
2022-12-22T10:29:57.414Z,73.80
2022-12-22T10:32:23.928Z,74.30
2022-12-22T10:34:50.477Z,74.10
2022-12-22T10:37:16.974Z,73.90
2022-12-22T10:39:43.470Z,73.30
2022-12-22T10:42:09.959Z,74.20
2022-12-22T10:44:36.464Z,73.90
2022-12-22T10:47:02.926Z,74.00
2022-12-22T10:49:29.422Z,74.00
2022-12-22T10:51:55.922Z,74.30
2022-12-22T10:54:22.412Z,73.70
2022-12-22T10:56:48.889Z,74.20
2022-12-22T10:59:15.341Z,74.20
2022-12-22T11:01:41.908Z,74.10
2022-12-22T11:04:08.475Z,74.50
2022-12-22T11:06:35.037Z,74.10
2022-12-22T11:09:31.213Z,74.10
2022-12-22T11:11:47.948Z,73.70
2022-12-22T11:14:14.460Z,73.90
2022-12-22T11:16:41.018Z,74.10
2022-12-22T11:19:07.528Z,74.00
2022-12-22T11:21:34.014Z,74.10
2022-12-22T11:24:04.446Z,74.00
2022-12-22T11:26:30.907Z,73.80
2022-12-22T11:28:57.377Z,73.80
2022-12-22T11:31:23.915Z,73.90
2022-12-22T11:33:50.489Z,73.60
2022-12-22T11:36:16.971Z,73.70
2022-12-22T11:38:43.440Z,73.60
2022-12-22T11:41:09.924Z,73.60
2022-12-22T11:43:36.409Z,74.00
2022-12-22T11:46:02.973Z,73.50
2022-12-22T11:48:29.496Z,73.50
2022-12-22T11:51:02.724Z,74.10
2022-12-22T11:53:40.219Z,74.80
2022-12-22T11:56:07.104Z,74.30
2022-12-22T11:58:33.590Z,74.70
2022-12-22T12:01:20.604Z,75.10
2022-12-22T12:03:46.545Z,74.90
2022-12-22T12:06:13.132Z,75.00
2022-12-22T12:08:39.608Z,74.40
2022-12-22T12:11:06.100Z,74.00
2022-12-22T12:13:37.018Z,74.00
2022-12-22T12:16:04.289Z,74.00
2022-12-22T12:18:30.819Z,73.60
2022-12-22T12:20:57.289Z,73.80
2022-12-22T12:23:23.780Z,73.70
2022-12-22T12:25:50.256Z,74.10
2022-12-22T12:28:16.715Z,74.00
2022-12-22T12:30:43.180Z,74.00
2022-12-22T12:33:09.649Z,74.10
2022-12-22T12:35:36.125Z,73.80
2022-12-22T12:38:02.588Z,74.00
2022-12-22T12:40:29.071Z,73.60
2022-12-22T12:42:55.535Z,73.60
2022-12-22T12:45:22.030Z,73.90
2022-12-22T12:47:48.519Z,73.70
2022-12-22T12:50:14.995Z,73.40
2022-12-22T12:52:41.461Z,73.20
2022-12-22T12:55:07.934Z,73.60
2022-12-22T12:57:34.408Z,73.60
2022-12-22T13:00:00.918Z,73.40
2022-12-22T13:02:27.751Z,73.60
2022-12-22T13:04:54.493Z,73.80
2022-12-22T13:07:20.975Z,73.60
2022-12-22T13:09:51.567Z,73.70
2022-12-22T13:12:24.313Z,73.30
2022-12-22T13:14:51.332Z,74.00
2022-12-22T13:17:18.095Z,73.50
2022-12-22T13:19:44.653Z,73.30
2022-12-22T13:22:11.149Z,73.10
2022-12-22T13:24:37.626Z,73.00
2022-12-22T13:27:04.091Z,72.90
2022-12-22T13:29:30.560Z,72.70
2022-12-22T13:31:57.825Z,73.00
2022-12-22T13:34:24.358Z,73.30
2022-12-22T13:36:50.846Z,73.40
2022-12-22T13:39:17.357Z,73.30
2022-12-22T13:41:43.881Z,73.10
2022-12-22T13:44:10.398Z,73.50
2022-12-22T13:46:36.918Z,73.60
2022-12-22T13:49:03.456Z,73.80
2022-12-22T13:51:29.944Z,73.40
2022-12-22T13:54:12.480Z,73.50
2022-12-22T13:56:39.387Z,73.50
2022-12-22T13:59:05.868Z,73.50
2022-12-22T14:01:32.644Z,73.30
2022-12-22T14:04:01.562Z,73.30
2022-12-22T14:06:28.905Z,73.10
2022-12-22T14:08:55.364Z,73.20
2022-12-22T14:11:21.842Z,73.10
2022-12-22T14:13:48.330Z,72.80
2022-12-22T14:16:14.894Z,72.60
2022-12-22T14:18:41.426Z,73.00
2022-12-22T14:21:07.913Z,72.90
2022-12-22T14:23:34.387Z,73.00
2022-12-22T14:26:00.862Z,72.80
2022-12-22T14:28:27.326Z,73.00
2022-12-22T14:30:53.807Z,72.80
2022-12-22T14:33:20.259Z,72.60
2022-12-22T14:35:46.724Z,72.30
2022-12-22T14:38:13.206Z,72.50
2022-12-22T14:40:39.691Z,72.80
2022-12-22T14:43:06.141Z,72.90
2022-12-22T14:45:32.718Z,73.00
2022-12-22T14:47:59.236Z,72.80
2022-12-22T14:50:25.715Z,72.60
2022-12-22T14:52:52.195Z,72.70
2022-12-22T14:55:18.681Z,72.50
2022-12-22T14:57:45.162Z,72.40
2022-12-22T15:00:11.657Z,72.50
2022-12-22T15:02:39.916Z,72.70
2022-12-22T15:05:06.877Z,72.50
2022-12-22T15:08:04.724Z,72.50
2022-12-22T15:10:19.886Z,72.20
2022-12-22T15:12:46.385Z,72.30
2022-12-22T15:15:13.328Z,72.20
2022-12-22T15:17:39.820Z,72.40
2022-12-22T15:20:06.312Z,72.60
2022-12-22T15:22:32.793Z,72.30
2022-12-22T15:24:59.273Z,72.20
2022-12-22T15:27:25.748Z,72.40
2022-12-22T15:29:52.224Z,72.60
2022-12-22T15:32:18.747Z,73.30
2022-12-22T15:34:45.291Z,72.50
2022-12-22T15:37:11.761Z,72.50
2022-12-22T15:39:38.233Z,72.00
2022-12-22T15:42:04.794Z,72.20
2022-12-22T15:44:38.295Z,72.40
2022-12-22T15:47:05.302Z,72.40
2022-12-22T15:49:31.797Z,72.40
2022-12-22T15:51:58.266Z,72.00
2022-12-22T15:54:24.735Z,72.00
2022-12-22T15:56:51.211Z,71.80
2022-12-22T15:59:17.680Z,71.80
2022-12-22T16:01:44.311Z,72.00
2022-12-22T16:04:16.604Z,71.90
2022-12-22T16:06:43.093Z,72.10
2022-12-22T16:09:09.574Z,72.40
2022-12-22T16:11:36.029Z,72.00
2022-12-22T16:14:02.511Z,72.30
2022-12-22T16:16:29.038Z,72.10
2022-12-22T16:18:55.543Z,72.40
2022-12-22T16:21:22.036Z,72.60
2022-12-22T16:23:48.534Z,72.70
2022-12-22T16:26:15.006Z,72.50
2022-12-22T16:28:41.483Z,72.70
2022-12-22T16:31:07.982Z,72.70
2022-12-22T16:33:34.560Z,72.50
2022-12-22T16:36:01.030Z,72.50
2022-12-22T16:38:27.508Z,72.40
2022-12-22T16:40:53.982Z,71.80
2022-12-22T16:46:04.607Z,71.80
2022-12-22T16:48:31.117Z,71.90
2022-12-22T16:50:57.585Z,71.80
2022-12-22T16:53:24.068Z,71.90
2022-12-22T16:55:50.537Z,71.80
2022-12-22T16:58:17.036Z,71.50
2022-12-22T17:00:43.502Z,71.50
2022-12-22T17:03:10.195Z,71.70
2022-12-22T17:05:43.772Z,71.70
2022-12-22T17:08:11.065Z,71.40
2022-12-22T17:10:37.541Z,71.60
2022-12-22T17:13:03.977Z,72.20
2022-12-22T17:15:30.477Z,71.70
2022-12-22T17:17:56.969Z,71.40
2022-12-22T17:20:23.448Z,71.40
2022-12-22T17:22:49.937Z,71.30
2022-12-22T17:25:16.409Z,71.40
2022-12-22T17:27:42.921Z,71.60
2022-12-22T17:30:14.432Z,71.40
2022-12-22T17:32:44.093Z,71.40
2022-12-22T17:35:10.569Z,71.50
2022-12-22T17:37:37.064Z,71.20
2022-12-22T17:40:03.561Z,71.10
2022-12-22T17:42:30.076Z,71.20
2022-12-22T17:44:58.641Z,71.20
2022-12-22T17:47:32.197Z,71.20
2022-12-22T17:50:01.346Z,71.30
2022-12-22T17:52:27.838Z,71.70
2022-12-22T17:54:54.319Z,72.30
2022-12-22T17:57:20.789Z,72.10
2022-12-22T17:59:47.275Z,72.20
2022-12-22T18:02:13.890Z,72.00
2022-12-22T18:04:40.485Z,71.70
2022-12-22T18:07:06.974Z,71.80
2022-12-22T18:09:33.450Z,72.10
2022-12-22T18:11:59.918Z,72.30
2022-12-22T18:14:26.385Z,72.20
2022-12-22T18:16:52.896Z,72.30
2022-12-22T18:19:19.409Z,72.00
2022-12-22T18:21:45.882Z,71.80
2022-12-22T18:24:12.358Z,71.90
2022-12-22T18:26:38.827Z,72.00
2022-12-22T18:29:05.325Z,72.20
2022-12-22T18:31:31.916Z,72.80
2022-12-22T18:33:58.464Z,72.90
2022-12-22T18:36:24.921Z,72.50
2022-12-22T18:38:51.403Z,72.50
2022-12-22T18:41:17.873Z,72.20
2022-12-22T18:43:44.342Z,72.00
2022-12-22T18:46:10.838Z,71.80
2022-12-22T18:48:37.309Z,72.10
2022-12-22T18:51:03.776Z,71.70
2022-12-22T18:53:30.271Z,72.00
2022-12-22T18:55:56.768Z,72.50
2022-12-22T18:58:23.232Z,71.90
2022-12-22T19:00:49.773Z,71.90
2022-12-22T19:03:16.541Z,71.80
2022-12-22T19:05:43.186Z,71.90
2022-12-22T19:08:09.666Z,71.80
2022-12-22T19:10:36.152Z,71.90
2022-12-22T19:13:02.614Z,71.90
2022-12-22T19:15:29.107Z,71.80
2022-12-22T19:17:55.597Z,71.50
2022-12-22T19:20:22.050Z,71.70
2022-12-22T19:22:48.530Z,72.00
2022-12-22T19:25:15.027Z,72.20
2022-12-22T19:27:41.527Z,72.10
2022-12-22T19:30:07.988Z,72.30
2022-12-22T19:32:34.654Z,72.70
2022-12-22T19:35:01.284Z,72.50
2022-12-22T19:37:27.743Z,72.60
2022-12-22T19:39:58.702Z,72.70
2022-12-22T19:42:25.203Z,73.00
2022-12-22T19:44:51.689Z,72.70
2022-12-22T19:47:18.159Z,73.10
2022-12-22T19:49:44.638Z,73.00
2022-12-22T19:52:11.129Z,72.90
2022-12-22T19:54:37.594Z,72.60
2022-12-22T19:57:04.054Z,72.90
2022-12-22T19:59:37.287Z,73.60
2022-12-22T20:02:05.024Z,73.40
2022-12-22T20:04:31.590Z,73.00
2022-12-22T20:06:58.072Z,73.00
2022-12-22T20:09:24.555Z,73.30
2022-12-22T20:11:51.058Z,72.90
2022-12-22T20:14:17.518Z,73.10
2022-12-22T20:16:44.069Z,73.00
2022-12-22T20:19:10.586Z,73.00
2022-12-22T20:21:37.080Z,73.20
2022-12-22T20:24:03.526Z,73.40
2022-12-22T20:26:30.015Z,74.20
2022-12-22T20:28:56.482Z,73.40
2022-12-22T20:31:22.995Z,73.20
2022-12-22T20:33:52.809Z,73.40
2022-12-22T20:36:19.304Z,73.30
2022-12-22T20:38:45.792Z,73.40
2022-12-22T20:41:12.313Z,73.20
2022-12-22T20:43:38.787Z,73.20
2022-12-22T20:46:05.354Z,73.40
2022-12-22T20:48:31.871Z,73.20
2022-12-22T20:50:58.348Z,73.20
2022-12-22T20:53:24.805Z,73.60
2022-12-22T20:55:51.283Z,73.70
2022-12-22T20:58:17.747Z,73.60
2022-12-22T21:00:44.236Z,73.60
2022-12-22T21:03:10.790Z,73.80
2022-12-22T21:05:40.787Z,73.90
2022-12-22T21:08:07.265Z,73.80
2022-12-22T21:10:34.793Z,73.80
2022-12-22T21:13:01.257Z,73.70
2022-12-22T21:15:27.747Z,73.70
2022-12-22T21:17:58.097Z,73.50
2022-12-22T21:20:24.807Z,73.90
2022-12-22T21:22:51.284Z,74.10
2022-12-22T21:25:17.798Z,74.00
2022-12-22T21:27:44.282Z,74.10
2022-12-22T21:30:10.780Z,74.40
2022-12-22T21:32:37.272Z,74.40
2022-12-22T21:35:08.014Z,74.40
2022-12-22T21:37:35.019Z,74.60
2022-12-22T21:40:01.474Z,74.50
2022-12-22T21:42:27.956Z,74.60
2022-12-22T21:44:54.449Z,75.00
2022-12-22T21:47:20.947Z,74.30
2022-12-22T21:49:47.412Z,74.40
2022-12-22T21:52:13.928Z,74.60
2022-12-22T21:54:40.398Z,74.50
2022-12-22T21:57:06.881Z,74.40
2022-12-22T21:59:33.368Z,74.60
2022-12-22T22:01:59.904Z,74.60
2022-12-22T22:04:26.561Z,74.50
2022-12-22T22:06:53.044Z,74.50
2022-12-22T22:09:19.522Z,74.40
2022-12-22T22:11:45.999Z,74.50
2022-12-22T22:14:12.460Z,74.50
2022-12-22T22:16:38.939Z,74.40
2022-12-22T22:19:05.414Z,74.40
2022-12-22T22:21:31.914Z,74.30
2022-12-22T22:23:58.391Z,74.50
2022-12-22T22:26:24.895Z,74.50
2022-12-22T22:28:51.369Z,74.60
2022-12-22T22:31:17.955Z,74.40
2022-12-22T22:33:44.449Z,74.60
2022-12-22T22:36:10.934Z,74.80
2022-12-22T22:38:37.426Z,74.80
2022-12-22T22:41:03.895Z,74.60
2022-12-22T22:43:30.370Z,75.30
2022-12-22T22:45:56.883Z,74.50
2022-12-22T22:48:23.365Z,74.50
2022-12-22T22:50:49.835Z,74.60
2022-12-22T22:53:16.332Z,74.60
2022-12-22T22:55:42.799Z,74.60
2022-12-22T22:58:09.288Z,74.40
2022-12-22T23:00:35.780Z,74.50
2022-12-22T23:03:02.344Z,74.50
2022-12-22T23:05:28.849Z,74.30
2022-12-22T23:07:55.334Z,74.50
2022-12-22T23:10:21.825Z,74.50
2022-12-22T23:12:48.321Z,74.70
2022-12-22T23:15:14.793Z,74.50
2022-12-22T23:17:41.297Z,74.50
2022-12-22T23:20:07.781Z,74.40
2022-12-22T23:22:34.259Z,74.40
2022-12-22T23:25:00.730Z,74.70
2022-12-22T23:27:27.206Z,74.40
2022-12-22T23:29:53.691Z,74.30
2022-12-22T23:32:22.875Z,74.60
2022-12-22T23:34:49.353Z,74.70
2022-12-22T23:37:19.518Z,74.50
2022-12-22T23:39:46.447Z,74.60
2022-12-22T23:42:12.919Z,74.40
2022-12-22T23:44:39.442Z,74.40
2022-12-22T23:47:05.969Z,74.40
2022-12-22T23:49:32.534Z,74.50
2022-12-22T23:51:58.987Z,74.30
2022-12-22T23:54:25.470Z,74.60
2022-12-22T23:56:51.949Z,74.70
2022-12-22T23:59:18.413Z,74.80
